Latest Coastal Weather Observations for Flinders Reef

IDQ60701

Issued at 1:02 am EST Friday 5 March 2021 (issued every 10 minutes, with the page automatically refreshed every 10 minutes)

About coastal observations | Map of coastal stations | Coastal observations for QLD | Marine services | Other Formats
Station Details ID: 200783 Name: FLINDERS REEF Lat: -17.72 Lon: 148.45 Height: 2.6 m
Data from the previous 72 hours. | See also: Recent months at Flinders Reef
Date/Time
EST
Wind Sea
Height
m
Swell Vis
km
Cloud Weather Temp
°C
Press
MSL
hPa
Rain since
9am
mm
Dir  Spd
kts
Gust
kts
Height
m
Period
s
Dir
05/01:00am S 24 28 - - - - - - - 27.6 1001.7 -
05/12:30am S 26 31 - - - - - - - 27.7 1001.8 -
05/12:00am SSE 29 35 - - - - - - - 27.8 1001.9 -
 
Date/Time
EST
Wind Sea
Height
m
Swell Vis
km
Cloud Weather Temp
°C
Press
MSL
hPa
Rain since
9am
mm
Dir  Spd
kts
Gust
kts
Height
m
Period
s
Dir
04/11:30pm SSE 29 32 - - - - - - - 26.9 1002.1 -
04/11:00pm SSE 28 35 - - - - - - - 27.7 1002.1 -
04/10:30pm SSE 30 35 - - - - - - - 27.3 1002.0 -
04/10:00pm SSE 30 34 - - - - - - - 27.6 1001.6 -
04/09:30pm SSE 29 37 - - - - - - - 26.7 1001.4 -
04/09:00pm SSE 28 35 - - - - - - - 25.4 1001.3 -
04/08:30pm SSE 26 30 - - - - - - - 25.8 1000.8 -
04/08:00pm SSE 26 31 - - - - - - - 25.6 1000.3 -
04/07:36pm SSE 29 40 - - - - - - - 22.7 1000.0 -
04/07:30pm S 27 31 - - - - - - - 27.3 999.8 -
04/07:00pm SSE 28 34 - - - - - - - 26.7 999.7 -
04/06:30pm SSE 28 32 - - - - - - - 27.7 999.4 -
04/06:00pm SSE 29 35 - - - - - - - 27.6 999.2 -
04/05:30pm SSE 31 36 - - - - - - - 27.4 998.5 -
04/05:00pm SE 29 37 - - - - - - - 27.2 998.3 -
04/04:30pm SSE 30 35 - - - - - - - 26.9 998.2 -
04/04:00pm SE 28 33 - - - - - - - 26.7 998.3 -
04/03:30pm SE 31 37 - - - - - - - 27.2 998.2 -
04/03:00pm SE 31 36 - - - - - - - 27.4 998.0 -
04/02:30pm SE 31 40 - - - - - - - 27.4 997.9 -
04/02:00pm SE 33 40 - - - - - - - 27.5 998.0 -
04/01:30pm SE 30 38 - - - - - - - 27.4 998.3 -
04/01:00pm SE 32 37 - - - - - - - 27.1 998.4 -
04/12:30pm SE 32 38 - - - - - - - 27.1 998.7 -
04/12:00pm SE 29 36 - - - - - - - 27.0 999.2 -
04/11:30am SSE 30 35 - - - - - - - 26.9 999.8 -
04/11:00am SE 28 35 - - - - - - - 26.7 999.9 -
04/10:30am SE 27 33 - - - - - - - 27.2 1000.4 -
04/10:00am SE 29 34 - - - - - - - 26.8 1000.5 -
04/09:30am SE 27 33 - - - - - - - 27.0 1000.9 -
04/09:00am SE 26 30 - - - - - - - 26.1 1000.9 -
04/08:30am SE 27 30 - - - - - - - 27.0 1000.6 -
04/08:00am SE 28 35 - - - - - - - 26.5 1000.4 -
04/07:48am ESE 27 37 - - - - - - - 26.2 1000.4 -
04/07:30am SE 30 36 - - - - - - - 26.6 1000.2 -
04/07:00am SE 30 38 - - - - - - - 26.5 999.8 -
04/06:53am SE 28 38 - - - - - - - 26.7 999.6 -
04/06:30am SE 25 29 - - - - - - - 27.2 999.5 -
04/06:00am SE 27 33 - - - - - - - 27.1 999.6 -
04/05:30am SE 28 34 - - - - - - - 26.7 999.4 -
04/05:00am SE 28 34 - - - - - - - 26.7 999.2 -
04/04:30am SE 28 32 - - - - - - - 26.8 999.1 -
04/04:00am SE 29 35 - - - - - - - 26.5 999.0 -
04/03:45am SE 27 38 - - - - - - - 26.4 998.9 -
04/03:30am ESE 30 37 - - - - - - - 26.7 999.0 -
04/03:12am SE 30 40 - - - - - - - 26.7 998.8 -
04/03:00am SE 29 36 - - - - - - - 27.6 998.9 -
04/02:30am SE 30 38 - - - - - - - 28.0 998.9 -
04/02:00am SE 29 35 - - - - - - - 27.6 999.4 -
04/01:30am SE 29 34 - - - - - - - 27.3 999.7 -
04/01:00am SE 29 36 - - - - - - - 27.2 1000.1 -
04/12:30am SE 32 40 - - - - - - - 27.4 1000.1 -
04/12:00am SE 30 34 - - - - - - - 27.6 1000.5 -
 
Date/Time
EST
Wind Sea
Height
m
Swell Vis
km
Cloud Weather Temp
°C
Press
MSL
hPa
Rain since
9am
mm
Dir  Spd
kts
Gust
kts
Height
m
Period
s
Dir
03/11:30pm SE 30 36 - - - - - - - 27.5 1001.1 -
03/11:00pm SE 33 38 - - - - - - - 27.0 1001.0 -
03/10:30pm SE 31 36 - - - - - - - 28.0 1001.4 -
03/10:00pm SE 28 36 - - - - - - - 27.7 1001.4 -
03/09:30pm SE 25 31 - - - - - - - 27.0 1001.4 -
03/09:00pm SSE 28 33 - - - - - - - 27.9 1001.1 -
03/08:30pm SE 28 34 - - - - - - - 26.9 1001.1 -
03/08:00pm SE 31 39 - - - - - - - 27.5 1001.1 -
03/07:30pm SE 33 38 - - - - - - - 27.4 1000.6 -
03/07:00pm SE 27 33 - - - - - - - 27.2 1000.6 -
03/06:30pm SE 31 37 - - - - - - - 27.3 1000.2 -
03/06:11pm SSE 29 39 - - - - - - - 26.5 999.9 -
03/06:00pm SSE 32 37 - - - - - - - 25.9 999.5 -
03/05:30pm SSE 31 37 - - - - - - - 27.0 999.1 -
03/05:00pm SSE 30 34 - - - - - - - 27.0 999.4 -
03/04:30pm SSE 30 34 - - - - - - - 27.0 999.8 -
03/04:00pm SE 30 38 - - - - - - - 27.5 1000.0 -
03/03:30pm SSE 28 35 - - - - - - - 27.9 999.6 -
03/03:00pm SSE 27 32 - - - - - - - 27.8 999.7 -
03/02:30pm SSE 27 32 - - - - - - - 27.3 1000.0 -
03/02:00pm SE 30 36 - - - - - - - 27.3 1000.1 -
03/01:30pm SSE 28 35 - - - - - - - 27.9 1000.2 -
03/01:00pm SSE 29 33 - - - - - - - 28.4 1000.8 -
03/12:30pm SSE 29 34 - - - - - - - 28.4 1001.1 -
03/12:00pm SSE 29 34 - - - - - - - 27.4 1001.3 -
03/11:30am SE 27 32 - - - - - - - 27.0 1001.8 -
03/11:00am SE 29 35 - - - - - - - 26.5 1002.0 -
03/10:30am SE 29 35 - - - - - - - 26.9 1002.0 -
03/10:00am SE 29 34 - - - - - - - 27.5 1002.1 -
03/09:30am SE 29 34 - - - - - - - 27.2 1002.1 -
03/09:00am SE 28 35 - - - - - - - 26.8 1001.9 -
03/08:30am SE 29 34 - - - - - - - 27.5 1001.9 -
03/08:00am SE 28 35 - - - - - - - 26.8 1001.6 -
03/07:30am SE 30 35 - - - - - - - 27.1 1001.3 -
03/07:01am ESE 28 38 - - - - - - - 25.7 1001.2 -
03/07:00am ESE 29 38 - - - - - - - 25.3 1001.2 -
03/06:30am ESE 27 33 - - - - - - - 25.9 1001.3 -
03/06:00am SE 29 34 - - - - - - - 26.7 1000.9 -
03/05:30am SE 31 37 - - - - - - - 26.2 1000.5 -
03/05:00am SE 30 37 - - - - - - - 27.8 1000.1 -
03/04:30am SE 29 37 - - - - - - - 26.9 1000.1 -
03/04:00am SE 32 39 - - - - - - - 27.1 1000.1 -
03/03:30am SE 29 35 - - - - - - - 26.3 1000.0 -
03/03:00am SE 31 37 - - - - - - - 26.0 1000.0 -
03/02:30am SE 29 36 - - - - - - - 27.1 1000.1 -
03/02:00am SE 29 40 - - - - - - - 27.3 999.9 -
03/01:30am SE 32 38 - - - - - - - 27.8 1000.4 -
03/01:00am SE 31 38 - - - - - - - 26.6 1000.6 -
03/12:30am SE 31 37 - - - - - - - 25.7 1000.7 -
03/12:06am SE 32 42 - - - - - - - 25.9 1001.1 -
03/12:00am SE 33 39 - - - - - - - 26.9 1001.3 -
 
Date/Time
EST
Wind Sea
Height
m
Swell Vis
km
Cloud Weather Temp
°C
Press
MSL
hPa
Rain since
9am
mm
Dir  Spd
kts
Gust
kts
Height
m
Period
s
Dir
02/11:30pm SE 35 43 - - - - - - - 26.1 1001.6 -
02/11:00pm SE 35 43 - - - - - - - 27.4 1001.9 -
02/10:30pm SE 36 42 - - - - - - - 26.6 1002.0 -
02/10:00pm SE 36 44 - - - - - - - 27.7 1002.0 -
02/09:49pm SE 32 42 - - - - - - - 27.9 1002.0 -
02/09:30pm SE 33 40 - - - - - - - 27.9 1002.0 -
02/09:00pm SE 31 38 - - - - - - - 28.0 1001.7 -
02/08:30pm SE 30 39 - - - - - - - 27.4 1001.5 -
02/08:13pm SE 30 40 - - - - - - - 27.5 1001.5 -
02/08:00pm SE 32 39 - - - - - - - 28.3 1001.3 -
02/07:30pm SE 34 43 - - - - - - - 27.7 1001.0 -
02/07:00pm SE 34 44 - - - - - - - 27.7 1000.7 -
02/06:56pm SE 33 44 - - - - - - - 27.7 1000.7 -
02/06:30pm SE 33 39 - - - - - - - 27.2 1000.3 -
02/06:00pm SE 33 40 - - - - - - - 26.7 1000.1 -
02/05:30pm SE 32 38 - - - - - - - 27.1 999.8 -
02/05:00pm SE 33 39 - - - - - - - 23.8 999.5 -
02/04:30pm SE 27 33 - - - - - - - 26.5 999.7 -
02/04:00pm SE 29 35 - - - - - - - 27.0 999.4 -
02/03:30pm SE 31 37 - - - - - - - 26.8 999.3 -
02/03:00pm SE 30 35 - - - - - - - 26.7 999.2 -
02/02:30pm SSE 30 37 - - - - - - - 27.0 999.2 -
02/02:00pm SE 31 36 - - - - - - - 26.4 999.4 -
02/01:30pm SE 28 34 - - - - - - - 25.7 999.8 -
02/01:00pm SSE 29 35 - - - - - - - 26.3 1000.3 -
02/12:30pm SE 29 37 - - - - - - - 27.5 1000.8 -
02/12:00pm SE 29 37 - - - - - - - 26.8 1001.1 -
02/11:30am SE 29 34 - - - - - - - 27.5 1001.3 -
02/11:00am SE 29 36 - - - - - - - 26.8 1001.6 -
02/10:30am SE 30 35 - - - - - - - 27.1 1001.7 -
02/10:00am SE 27 32 - - - - - - - 26.6 1002.0 -
02/09:30am SE 29 35 - - - - - - - 26.8 1002.0 -
02/09:00am SE 30 35 - - - - - - - 26.8 1002.0 -
02/08:30am SE 30 37 - - - - - - - 26.8 1001.8 -
02/08:00am SE 31 37 - - - - - - - 26.6 1001.3 -
02/07:30am SE 29 35 - - - - - - - 26.5 1001.2 -
02/07:00am SE 30 35 - - - - - - - 26.6 1001.0 -
02/06:30am SE 30 36 - - - - - - - 26.4 1000.4 -
02/06:00am SE 29 35 - - - - - - - 26.1 1000.2 -
02/05:30am SE 31 37 - - - - - - - 26.3 1000.3 -
02/05:00am SE 33 39 - - - - - - - 25.7 999.8 -
02/04:30am SE 33 39 - - - - - - - 25.8 999.6 -
02/04:00am SE 31 37 - - - - - - - 24.4 999.7 -
02/03:30am SE 35 43 - - - - - - - 25.1 999.7 -
02/03:00am SE 34 41 - - - - - - - 24.4 999.7 -
02/02:30am SE 31 37 - - - - - - - 23.5 1000.2 -
02/02:13am SE 25 35 - - - - - - - 26.0 1000.4 -
02/02:00am SE 22 27 - - - - - - - 27.2 1000.6 -
02/01:30am SE 17 24 - - - - - - - 26.2 1000.6 -
02/01:29am SE 16 24 - - - - - - - 26.4 1000.7 -

Other formats

Comma delimited format used in spreadsheet applications
http://www.bom.gov.au/fwo/IDQ60701/IDQ60701.94290.axf

JavaScript Object Notation format (JSON) in row-major order
http://www.bom.gov.au/fwo/IDQ60701/IDQ60701.94290.json

Data quality

Most of these data are generated automatically and are frequently updated. Quality checks on data are not normally performed. It is possible for incorrect values to appear. Refer to information at About Latest Weather Observations and please check the disclaimer before using these data.